Albatros — C6CN4 — position and weather

sailwx.info

Track history (hours):
 
Tides and Currents Weather Stations Pressure Air Temp Water Temp Dewpoint Dewpoint Depression Visibility Wind Speed Wind Dir Waves Ship Positions

Albatros

Last reported at 2018-May-23 01:39 UTC. Time now 2018-May-23 03:19 UTC.
Position N 59°03' E 021°44'.

Length 205.5 m; beam 25.2 m; draft 7.6 m.

Type: Passenger vessel. MMSI: 308784000.

Date/timePositionNaut miles runAvg speedWind from/ knotsBaromVisibWave heightAir tempDewpointWater temp
2018-May-23 01:39N 59°03' E 021°44'215.1
2018-May-23 01:30N 59°01' E 021°41'715.0
2018-May-23 01:00N 58°56' E 021°31'815.1
2018-May-23 00:30N 58°51' E 021°20'815.2
2018-May-23 00:00N 58°47' E 021°08'134 7.9
2018-May-22 07:03N 57°24' E 017°48'112.1
2018-May-22 07:00N 57°23' E 017°48'912.3
2018-May-22 06:17N 57°15' E 017°50'512.4
2018-May-22 05:54N 57°10' E 017°52'512.4
2018-May-22 05:30N 57°05' E 017°53'612.1
2018-May-22 05:00N 56°59' E 017°55'812.3
2018-May-22 04:23N 56°52' E 017°57'512.8
2018-May-22 04:00N 56°47' E 017°58'612.8
2018-May-22 03:30N 56°40' E 018°00'612.8
2018-May-22 03:00N 56°34' E 018°02'612.7
2018-May-22 02:30N 56°28' E 018°04'612.8
2018-May-22 02:00N 56°22' E 018°05'713.1
2018-May-22 01:30N 56°15' E 018°07'814.9
2018-May-22 00:57N 56°07' E 018°11'715.0
2018-May-22 00:28N 56°00' E 018°14'715.1
2018-May-22 00:00N 55°53' E 018°18'814.9
2018-May-21 23:30N 55°46' E 018°22'814.9
2018-May-21 23:00N 55°39' E 018°26'714.9
2018-May-21 22:30N 55°32' E 018°31'714.0
2018-May-21 22:00N 55°25' E 018°31'612.9
2018-May-21 21:30N 55°19' E 018°36'713.5
2018-May-21 21:00N 55°13' E 018°40'714.7
2018-May-21 20:30N 55°06' E 018°45'714.8
2018-May-21 20:00N 54°60' E 018°50'714.4
2018-May-21 19:30N 54°53' E 018°55'714.4
2018-May-21 19:00N 54°46' E 018°59'713.8
2018-May-21 18:30N 54°39' E 018°57'714.3
2018-May-21 18:00N 54°33' E 018°51'713.1
2018-May-21 17:30N 54°28' E 018°43'4 8.2
2018-May-21 17:00N 54°25' E 018°39'1 1.5
2018-May-21 16:26N 54°24' E 018°40'0 0.0
2018-May-21 15:59N 54°24' E 018°40'0 0.0
2018-May-21 15:29N 54°24' E 018°40'0 0.0
2018-May-21 14:59N 54°24' E 018°40'0 0.0
2018-May-21 14:29N 54°24' E 018°40'0 0.0
2018-May-21 13:59N 54°24' E 018°40'0 0.0
2018-May-21 13:29N 54°24' E 018°40'0 0.0
2018-May-21 12:59N 54°24' E 018°40'0 0.0
2018-May-21 12:29N 54°24' E 018°40'0 0.0
2018-May-21 11:59N 54°24' E 018°40'0 0.0
2018-May-21 11:29N 54°24' E 018°40'0 0.0
2018-May-21 10:59N 54°24' E 018°40'0 0.0
2018-May-21 10:29N 54°24' E 018°40'0 0.0
2018-May-21 10:00N 54°24' E 018°40'1 2.9
2018-May-21 09:30N 54°23' E 018°40'1 2.8
2018-May-21 09:00N 54°24' E 018°40'4 7.4
2018-May-21 08:30N 54°28' E 018°41'714.4
2018-May-21 08:00N 54°33' E 018°49'1019.0
2018-May-21 07:30N 54°42' E 018°58'917.6
2018-May-21 07:00N 54°50' E 018°53'1019.6
2018-May-21 06:30N 54°56' E 018°39'918.4
2018-May-21 06:00N 54°58' E 018°24'918.6
2018-May-21 05:30N 54°58' E 018°08'918.5
2018-May-21 05:00N 54°58' E 017°51'918.4
2018-May-21 04:30N 54°55' E 017°36'1118.5
2018-May-21 03:54N 54°53' E 017°17'718.4
2018-May-21 03:30N 54°51' E 017°05'918.5
2018-May-21 03:00N 54°48' E 016°49'918.7
2018-May-21 02:30N 54°47' E 016°34'918.9
2018-May-21 02:00N 54°45' E 016°17'1019.0
2018-May-21 01:30N 54°44' E 016°01'1019.1
2018-May-21 01:00N 54°42' E 015°45'1019.3
2018-May-21 00:30N 54°40' E 015°28'1019.0
2018-May-21 00:00N 54°39' E 015°12'918.8
2018-May-20 23:31N 54°37' E 014°56'918.8
2018-May-20 23:00N 54°36' E 014°40'918.3
2018-May-20 22:30N 54°35' E 014°24'917.1
2018-May-20 22:00N 54°36' E 014°10'918.5
2018-May-20 21:30N 54°28' E 014°04'917.5
2018-May-20 21:00N 54°20' E 014°08'918.4
2018-May-20 20:30N 54°11' E 014°13'815.8
2018-May-20 20:00N 54°03' E 014°15'612.9
2018-May-20 19:30N 53°56' E 014°16'9 7.9
2018-May-20 18:24N 53°48' E 014°21'712.7
2018-May-20 17:51N 53°43' E 014°28'411.7
2018-May-20 17:30N 53°40' E 014°32'510.6
2018-May-20 17:01N 53°35' E 014°36'5 9.1
2018-May-20 16:29N 53°30' E 014°38'4 7.7
2018-May-20 15:59N 53°26' E 014°35'1 1.0
2018-May-20 15:25N 53°26' E 014°35'0 0.0
2018-May-20 14:55N 53°26' E 014°35'0 0.0
2018-May-20 14:25N 53°26' E 014°35'0 0.0
2018-May-20 13:55N 53°26' E 014°35'0 0.0
2018-May-20 13:25N 53°26' E 014°35'0 0.0
2018-May-20 12:58N 53°26' E 014°35'0 0.0
2018-May-20 12:28N 53°26' E 014°35'0 0.0
2018-May-20 11:58N 53°26' E 014°35'0 0.0
2018-May-20 11:28N 53°26' E 014°35'0 0.0
2018-May-20 10:58N 53°26' E 014°35'0 0.0
2018-May-20 10:25N 53°26' E 014°35'0 0.0
2018-May-20 09:55N 53°26' E 014°35'0 0.0
2018-May-20 09:25N 53°26' E 014°35'0 0.0
2018-May-20 08:55N 53°26' E 014°35'0 0.0
2018-May-20 08:25N 53°26' E 014°35'0 0.0
2018-May-20 07:58N 53°26' E 014°35'0 0.0
2018-May-20 07:29N 53°26' E 014°35'1 1.1
2018-May-20 06:59N 53°26' E 014°35'2 3.9
2018-May-20 06:28N 53°28' E 014°36'4 7.9
2018-May-20 06:00N 53°32' E 014°38'5 9.4
2018-May-20 05:29N 53°36' E 014°35'510.2
2018-May-20 05:01N 53°41' E 014°31'611.9
2018-May-20 04:29N 53°45' E 014°25'55 9.6
2018-May-19 22:47N 54°35' E 013°44'410.8
2018-May-19 22:26N 54°38' E 013°41'5 9.9
2018-May-19 21:54N 54°43' E 013°36'4 9.4
2018-May-19 21:30N 54°45' E 013°31'510.1
2018-May-19 21:00N 54°46' E 013°23'10 9.5
2018-May-19 19:55N 54°46' E 013°05'4 8.4
2018-May-19 19:29N 54°46' E 012°58'29 9.3
2018-May-19 16:24N 54°30' E 012°16'4 9.9
2018-May-19 16:01N 54°27' E 012°14'5 9.7
2018-May-19 15:30N 54°24' E 012°07'910.0
2018-May-19 14:35N 54°24' E 011°51'110.0
2018-May-19 14:30N 54°25' E 011°50'5 9.9
2018-May-19 13:58N 54°26' E 011°41'511.6
2018-May-19 13:30N 54°28' E 011°32'5 9.9
2018-May-19 13:00N 54°30' E 011°25'5 9.8
2018-May-19 12:30N 54°33' E 011°17'5 9.9
2018-May-19 12:00N 54°35' E 011°10'4 8.6
2018-May-19 11:30N 54°35' E 011°02'4 8.7
2018-May-19 11:00N 54°35' E 010°55'4 8.7
2018-May-19 10:30N 54°34' E 010°47'4 8.7
2018-May-19 10:00N 54°34' E 010°40'4 8.5
2018-May-19 09:29N 54°33' E 010°32'4 8.9
2018-May-19 09:00N 54°31' E 010°26'8 9.3
2018-May-19 08:12N 54°27' E 010°15'13 4.8
2018-May-19 05:29N 54°21' E 009°55'4 7.8
2018-May-19 05:00N 54°22' E 009°49'4 8.0
2018-May-19 04:30N 54°20' E 009°43'4 7.2
2018-May-19 04:00N 54°17' E 009°39'3 5.8
2018-May-19 03:30N 54°15' E 009°37'4 7.3
2018-May-19 03:00N 54°12' E 009°33'4 8.6
2018-May-19 02:30N 54°10' E 009°26'4 8.6
2018-May-19 02:00N 54°08' E 009°20'4 8.4
2018-May-19 01:30N 54°04' E 009°19'4 8.7
2018-May-19 01:00N 53°59' E 009°17'3 6.8
2018-May-19 00:30N 53°57' E 009°14'2 4.1
2018-May-19 00:00N 53°55' E 009°11'2 4.0
2018-May-18 23:30N 53°54' E 009°09'1 1.4
2018-May-18 23:00N 53°53' E 009°08'1 2.3
2018-May-18 22:30N 53°53' E 009°06'2 4.4
2018-May-18 22:00N 53°52' E 009°03'611.6
2018-May-18 21:30N 53°50' E 008°53'612.5
2018-May-18 21:00N 53°52' E 008°43'814.7
2018-May-18 20:30N 53°58' E 008°35'18 8.6
2018-May-18 18:21N 53°48' E 008°08'720.3
2018-May-18 18:00N 53°43' E 008°16'1120.9
2018-May-18 17:30N 53°37' E 008°30'3 6.5
2018-May-18 16:58N 53°34' E 008°33'0 0.0
2018-May-18 16:28N 53°34' E 008°33'0 0.0
2018-May-18 15:55N 53°34' E 008°33'0 0.0
2018-May-18 15:28N 53°34' E 008°33'0 0.0
2018-May-18 14:58N 53°34' E 008°33'0 0.0
2018-May-18 14:28N 53°34' E 008°33'0 0.0
2018-May-18 13:55N 53°34' E 008°33'0 0.0
2018-May-18 13:28N 53°34' E 008°33'0 0.0
2018-May-18 12:49N 53°34' E 008°33'0 0.0
2018-May-18 12:28N 53°34' E 008°33'0 0.0
2018-May-18 11:58N 53°34' E 008°33'0 0.0
2018-May-18 11:28N 53°34' E 008°33'0 0.0
2018-May-18 10:58N 53°34' E 008°33'0 0.0
2018-May-18 10:28N 53°34' E 008°33'0 0.0
2018-May-18 09:58N 53°34' E 008°33'0 0.0
2018-May-18 09:28N 53°34' E 008°33'0 0.0
2018-May-18 08:58N 53°34' E 008°33'0 0.0
2018-May-18 08:28N 53°34' E 008°33'0 0.0
2018-May-18 07:58N 53°34' E 008°33'0 0.0
2018-May-18 07:28N 53°34' E 008°33'0 0.0
2018-May-18 06:58N 53°34' E 008°33'0 0.0
2018-May-18 06:28N 53°34' E 008°33'0 0.0
2018-May-18 06:01N 53°34' E 008°33'0 0.2
2018-May-18 05:31N 53°34' E 008°33'3 5.7
2018-May-18 05:00N 53°36' E 008°30'612.7
2018-May-18 04:30N 53°40' E 008°22'714.1
2018-May-18 04:00N 53°45' E 008°13'5511.0
2018-May-17 22:58N 54°09' E 006°48'611.9
2018-May-17 22:27N 54°09' E 006°37'1411.9
2018-May-17 21:17N 54°08' E 006°14'3213.4
2018-May-17 18:54N 54°04' E 005°19'17112.3
2018-May-17 04:56N 54°24' E 000°28'614.8
2018-May-17 04:31N 54°25' E 000°18'714.6
2018-May-17 04:01N 54°31' E 000°10'815.3
2018-May-17 03:30N 54°38' E 000°03'815.0
2018-May-17 03:00N 54°44' W 000°03'714.8
2018-May-17 02:30N 54°51' W 000°09'5014.3
2018-May-16 23:01N 55°35' W 000°51'014.2
2018-May-16 23:00N 55°35' W 000°51'714.3
2018-May-16 22:30N 55°41' W 000°57'713.7
2018-May-16 22:00N 55°47' W 001°03'713.8
2018-May-16 21:30N 55°52' W 001°12'713.7
2018-May-16 21:01N 55°57' W 001°20'714.0
2018-May-16 20:31N 56°02' W 001°29'714.0
2018-May-16 20:00N 56°07' W 001°38'713.9
2018-May-16 19:30N 56°12' W 001°46'1914.1
2018-May-16 18:11N 56°23' W 002°13'214.2
2018-May-16 18:00N 56°24' W 002°18'713.2
2018-May-16 17:31N 56°26' W 002°29'6 9.9
2018-May-16 16:52N 56°27' W 002°40'514.0
2018-May-16 16:30N 56°27' W 002°49'4 0.4
2018-May-16 04:30N 56°28' W 002°57'1 1.9
2018-May-16 03:59N 56°28' W 002°55'510.6
2018-May-16 03:30N 56°27' W 002°46'510.6
2018-May-16 03:00N 56°28' W 002°37'510.0
2018-May-16 02:30N 56°31' W 002°29'611.1
2018-May-16 02:00N 56°33' W 002°20'2111.9
2018-May-16 00:13N 56°51' W 001°58'312.5
2018-May-15 23:59N 56°53' W 001°55'612.2
2018-May-15 23:30N 56°58' W 001°50'611.9
2018-May-15 23:00N 57°04' W 001°45'612.7
2018-May-15 22:30N 57°10' W 001°42'713.3
2018-May-15 21:59N 57°17' W 001°39'712.5
2018-May-15 21:25N 57°23' W 001°36'512.0
2018-May-15 21:00N 57°28' W 001°33'611.8
2018-May-15 20:30N 57°34' W 001°36'7913.2
2018-May-15 14:31N 58°48' W 002°29'514.8
2018-May-15 14:09N 58°53' W 002°33'418.5
2018-May-15 13:57N 58°57' W 002°35'817.7
2018-May-15 13:31N 59°00' W 002°49'5 9.5
2018-May-15 13:01N 59°00' W 002°58'0 0.6
2018-May-15 12:30N 58°60' W 002°58'0 0.0
2018-May-15 12:00N 58°60' W 002°58'0 0.0
2018-May-15 11:30N 58°60' W 002°58'0 0.0
2018-May-15 11:00N 58°60' W 002°58'0 0.0
2018-May-15 10:30N 58°60' W 002°58'0 0.0
2018-May-15 10:00N 58°60' W 002°58'0 0.0
2018-May-15 09:30N 58°60' W 002°58'0 0.0
2018-May-15 09:00N 58°60' W 002°58'0 0.0
2018-May-15 08:30N 58°60' W 002°58'0 0.0
2018-May-15 08:00N 58°60' W 002°58'0 0.0
2018-May-15 07:30N 58°60' W 002°58'0 0.0
2018-May-15 07:00N 58°60' W 002°58'0 0.0
2018-May-15 06:30N 58°60' W 002°58'0 0.0
2018-May-15 06:00N 58°60' W 002°58'1 1.2
2018-May-15 05:30N 59°01' W 002°58'4 8.5
2018-May-15 05:00N 59°01' W 002°50'5 9.6
2018-May-15 04:30N 58°60' W 002°41'4 8.5
2018-May-15 04:00N 58°57' W 002°34'1610.4
2018-May-15 02:28N 58°42' W 002°44'714.2
2018-May-15 02:00N 58°36' W 002°51'714.1
2018-May-15 01:30N 58°41' W 003°01'611.5
2018-May-15 01:00N 58°44' W 003°11'815.2
2018-May-15 00:29N 58°44' W 003°26'207 7.3
2018-May-13 20:04N 55°50' W 006°53'117.1
2018-May-13 20:00N 55°49' W 006°52'714.4
2018-May-13 19:30N 55°43' W 006°46'713.6
2018-May-13 19:00N 55°37' W 006°38'713.7
2018-May-13 18:30N 55°32' W 006°31'713.8
2018-May-13 18:00N 55°27' W 006°21'714.7
2018-May-13 17:31N 55°25' W 006°09'714.2
2018-May-13 17:00N 55°21' W 005°59'815.9
2018-May-13 16:30N 55°14' W 005°52'816.7
2018-May-13 16:00N 55°07' W 005°45'918.0
2018-May-13 15:30N 54°59' W 005°38'918.6
2018-May-13 15:00N 54°50' W 005°33'815.3
2018-May-13 14:30N 54°43' W 005°39'613.0
2018-May-13 14:00N 54°41' W 005°49'4 7.8
2018-May-13 13:31N 54°38' W 005°54'1 1.3
2018-May-13 13:00N 54°37' W 005°54'0 0.0
2018-May-13 12:30N 54°37' W 005°54'0 0.0
2018-May-13 12:00N 54°37' W 005°54'0 0.0
2018-May-13 11:30N 54°37' W 005°54'0 0.0
2018-May-13 11:00N 54°37' W 005°54'0 0.0
2018-May-13 10:27N 54°37' W 005°54'0 0.0
2018-May-13 09:57N 54°37' W 005°54'0 0.0
2018-May-13 09:30N 54°37' W 005°54'0 0.0
2018-May-13 09:00N 54°37' W 005°54'0 0.0
2018-May-13 08:30N 54°37' W 005°54'0 0.0
2018-May-13 08:00N 54°37' W 005°54'0 0.0
2018-May-13 07:30N 54°37' W 005°54'0 0.0
2018-May-13 07:00N 54°37' W 005°54'0 0.4
2018-May-13 06:26N 54°37' W 005°54'3 6.1
2018-May-13 06:00N 54°39' W 005°51'510.1
2018-May-13 05:30N 54°42' W 005°44'5 9.8
2018-May-13 05:00N 54°43' W 005°36'5 9.9
2018-May-13 04:30N 54°42' W 005°27'5 9.9
2018-May-13 04:00N 54°38' W 005°23'510.7
2018-May-13 03:30N 54°33' W 005°19'510.6
2018-May-13 03:00N 54°28' W 005°15'5 9.7
2018-May-13 02:30N 54°24' W 005°11'5 9.5
2018-May-13 02:00N 54°19' W 005°10'  
Track history (hours):
 
Tides and Currents Weather Stations Pressure Air Temp Water Temp Dewpoint Dewpoint Depression Visibility Wind Speed Wind Dir Waves Ship Positions

Albatros

Last reported at 2018-May-23 01:39 UTC. Time now 2018-May-23 03:19 UTC.
Position N 59°03' E 021°44'.

Length 205.5 m; beam 25.2 m; draft 7.6 m.

Type: Passenger vessel. MMSI: 308784000.

Date/timePositionNaut miles runAvg speedWind from/ knotsBaromVisibWave heightAir tempDewpointWater temp
2018-May-23 01:39N 59°03' E 021°44'215.1
2018-May-23 01:30N 59°01' E 021°41'715.0
2018-May-23 01:00N 58°56' E 021°31'815.1
2018-May-23 00:30N 58°51' E 021°20'815.2
2018-May-23 00:00N 58°47' E 021°08'134 7.9
2018-May-22 07:03N 57°24' E 017°48'112.1
2018-May-22 07:00N 57°23' E 017°48'912.3
2018-May-22 06:17N 57°15' E 017°50'512.4
2018-May-22 05:54N 57°10' E 017°52'512.4
2018-May-22 05:30N 57°05' E 017°53'612.1
2018-May-22 05:00N 56°59' E 017°55'812.3
2018-May-22 04:23N 56°52' E 017°57'512.8
2018-May-22 04:00N 56°47' E 017°58'612.8
2018-May-22 03:30N 56°40' E 018°00'612.8
2018-May-22 03:00N 56°34' E 018°02'612.7
2018-May-22 02:30N 56°28' E 018°04'612.8
2018-May-22 02:00N 56°22' E 018°05'713.1
2018-May-22 01:30N 56°15' E 018°07'814.9
2018-May-22 00:57N 56°07' E 018°11'715.0
2018-May-22 00:28N 56°00' E 018°14'715.1
2018-May-22 00:00N 55°53' E 018°18'814.9
2018-May-21 23:30N 55°46' E 018°22'814.9
2018-May-21 23:00N 55°39' E 018°26'714.9
2018-May-21 22:30N 55°32' E 018°31'714.0
2018-May-21 22:00N 55°25' E 018°31'612.9
2018-May-21 21:30N 55°19' E 018°36'713.5
2018-May-21 21:00N 55°13' E 018°40'714.7
2018-May-21 20:30N 55°06' E 018°45'714.8
2018-May-21 20:00N 54°60' E 018°50'714.4
2018-May-21 19:30N 54°53' E 018°55'714.4
2018-May-21 19:00N 54°46' E 018°59'713.8
2018-May-21 18:30N 54°39' E 018°57'714.3
2018-May-21 18:00N 54°33' E 018°51'713.1
2018-May-21 17:30N 54°28' E 018°43'4 8.2
2018-May-21 17:00N 54°25' E 018°39'1 1.5
2018-May-21 16:26N 54°24' E 018°40'0 0.0
2018-May-21 15:59N 54°24' E 018°40'0 0.0
2018-May-21 15:29N 54°24' E 018°40'0 0.0
2018-May-21 14:59N 54°24' E 018°40'0 0.0
2018-May-21 14:29N 54°24' E 018°40'0 0.0
2018-May-21 13:59N 54°24' E 018°40'0 0.0
2018-May-21 13:29N 54°24' E 018°40'0 0.0
2018-May-21 12:59N 54°24' E 018°40'0 0.0
2018-May-21 12:29N 54°24' E 018°40'0 0.0
2018-May-21 11:59N 54°24' E 018°40'0 0.0
2018-May-21 11:29N 54°24' E 018°40'0 0.0
2018-May-21 10:59N 54°24' E 018°40'0 0.0
2018-May-21 10:29N 54°24' E 018°40'0 0.0
2018-May-21 10:00N 54°24' E 018°40'1 2.9
2018-May-21 09:30N 54°23' E 018°40'1 2.8
2018-May-21 09:00N 54°24' E 018°40'4 7.4
2018-May-21 08:30N 54°28' E 018°41'714.4
2018-May-21 08:00N 54°33' E 018°49'1019.0
2018-May-21 07:30N 54°42' E 018°58'917.6
2018-May-21 07:00N 54°50' E 018°53'1019.6
2018-May-21 06:30N 54°56' E 018°39'918.4
2018-May-21 06:00N 54°58' E 018°24'918.6
2018-May-21 05:30N 54°58' E 018°08'918.5
2018-May-21 05:00N 54°58' E 017°51'918.4
2018-May-21 04:30N 54°55' E 017°36'1118.5
2018-May-21 03:54N 54°53' E 017°17'718.4
2018-May-21 03:30N 54°51' E 017°05'918.5
2018-May-21 03:00N 54°48' E 016°49'918.7
2018-May-21 02:30N 54°47' E 016°34'918.9
2018-May-21 02:00N 54°45' E 016°17'1019.0
2018-May-21 01:30N 54°44' E 016°01'1019.1
2018-May-21 01:00N 54°42' E 015°45'1019.3
2018-May-21 00:30N 54°40' E 015°28'1019.0
2018-May-21 00:00N 54°39' E 015°12'918.8
2018-May-20 23:31N 54°37' E 014°56'918.8
2018-May-20 23:00N 54°36' E 014°40'918.3
2018-May-20 22:30N 54°35' E 014°24'917.1
2018-May-20 22:00N 54°36' E 014°10'918.5
2018-May-20 21:30N 54°28' E 014°04'917.5
2018-May-20 21:00N 54°20' E 014°08'918.4
2018-May-20 20:30N 54°11' E 014°13'815.8
2018-May-20 20:00N 54°03' E 014°15'612.9
2018-May-20 19:30N 53°56' E 014°16'9 7.9
2018-May-20 18:24N 53°48' E 014°21'712.7
2018-May-20 17:51N 53°43' E 014°28'411.7
2018-May-20 17:30N 53°40' E 014°32'510.6
2018-May-20 17:01N 53°35' E 014°36'5 9.1
2018-May-20 16:29N 53°30' E 014°38'4 7.7
2018-May-20 15:59N 53°26' E 014°35'1 1.0
2018-May-20 15:25N 53°26' E 014°35'0 0.0
2018-May-20 14:55N 53°26' E 014°35'0 0.0
2018-May-20 14:25N 53°26' E 014°35'0 0.0
2018-May-20 13:55N 53°26' E 014°35'0 0.0
2018-May-20 13:25N 53°26' E 014°35'0 0.0
2018-May-20 12:58N 53°26' E 014°35'0 0.0
2018-May-20 12:28N 53°26' E 014°35'0 0.0
2018-May-20 11:58N 53°26' E 014°35'0 0.0
2018-May-20 11:28N 53°26' E 014°35'0 0.0
2018-May-20 10:58N 53°26' E 014°35'0 0.0
2018-May-20 10:25N 53°26' E 014°35'0 0.0
2018-May-20 09:55N 53°26' E 014°35'0 0.0
2018-May-20 09:25N 53°26' E 014°35'0 0.0
2018-May-20 08:55N 53°26' E 014°35'0 0.0
2018-May-20 08:25N 53°26' E 014°35'0 0.0
2018-May-20 07:58N 53°26' E 014°35'0 0.0
2018-May-20 07:29N 53°26' E 014°35'1 1.1
2018-May-20 06:59N 53°26' E 014°35'2 3.9
2018-May-20 06:28N 53°28' E 014°36'4 7.9
2018-May-20 06:00N 53°32' E 014°38'5 9.4
2018-May-20 05:29N 53°36' E 014°35'510.2
2018-May-20 05:01N 53°41' E 014°31'611.9
2018-May-20 04:29N 53°45' E 014°25'55 9.6
2018-May-19 22:47N 54°35' E 013°44'410.8
2018-May-19 22:26N 54°38' E 013°41'5 9.9
2018-May-19 21:54N 54°43' E 013°36'4 9.4
2018-May-19 21:30N 54°45' E 013°31'510.1
2018-May-19 21:00N 54°46' E 013°23'10 9.5
2018-May-19 19:55N 54°46' E 013°05'4 8.4
2018-May-19 19:29N 54°46' E 012°58'29 9.3
2018-May-19 16:24N 54°30' E 012°16'4 9.9
2018-May-19 16:01N 54°27' E 012°14'5 9.7
2018-May-19 15:30N 54°24' E 012°07'910.0
2018-May-19 14:35N 54°24' E 011°51'110.0
2018-May-19 14:30N 54°25' E 011°50'5 9.9
2018-May-19 13:58N 54°26' E 011°41'511.6
2018-May-19 13:30N 54°28' E 011°32'5 9.9
2018-May-19 13:00N 54°30' E 011°25'5 9.8
2018-May-19 12:30N 54°33' E 011°17'5 9.9
2018-May-19 12:00N 54°35' E 011°10'4 8.6
2018-May-19 11:30N 54°35' E 011°02'4 8.7
2018-May-19 11:00N 54°35' E 010°55'4 8.7
2018-May-19 10:30N 54°34' E 010°47'4 8.7
2018-May-19 10:00N 54°34' E 010°40'4 8.5
2018-May-19 09:29N 54°33' E 010°32'4 8.9
2018-May-19 09:00N 54°31' E 010°26'8 9.3
2018-May-19 08:12N 54°27' E 010°15'13 4.8
2018-May-19 05:29N 54°21' E 009°55'4 7.8
2018-May-19 05:00N 54°22' E 009°49'4 8.0
2018-May-19 04:30N 54°20' E 009°43'4 7.2
2018-May-19 04:00N 54°17' E 009°39'3 5.8
2018-May-19 03:30N 54°15' E 009°37'4 7.3
2018-May-19 03:00N 54°12' E 009°33'4 8.6
2018-May-19 02:30N 54°10' E 009°26'4 8.6
2018-May-19 02:00N 54°08' E 009°20'4 8.4
2018-May-19 01:30N 54°04' E 009°19'4 8.7
2018-May-19 01:00N 53°59' E 009°17'3 6.8
2018-May-19 00:30N 53°57' E 009°14'2 4.1
2018-May-19 00:00N 53°55' E 009°11'2 4.0
2018-May-18 23:30N 53°54' E 009°09'1 1.4
2018-May-18 23:00N 53°53' E 009°08'1 2.3
2018-May-18 22:30N 53°53' E 009°06'2 4.4
2018-May-18 22:00N 53°52' E 009°03'611.6
2018-May-18 21:30N 53°50' E 008°53'612.5
2018-May-18 21:00N 53°52' E 008°43'814.7
2018-May-18 20:30N 53°58' E 008°35'18 8.6
2018-May-18 18:21N 53°48' E 008°08'720.3
2018-May-18 18:00N 53°43' E 008°16'1120.9
2018-May-18 17:30N 53°37' E 008°30'3 6.5
2018-May-18 16:58N 53°34' E 008°33'0 0.0
2018-May-18 16:28N 53°34' E 008°33'0 0.0
2018-May-18 15:55N 53°34' E 008°33'0 0.0
2018-May-18 15:28N 53°34' E 008°33'0 0.0
2018-May-18 14:58N 53°34' E 008°33'0 0.0
2018-May-18 14:28N 53°34' E 008°33'0 0.0
2018-May-18 13:55N 53°34' E 008°33'0 0.0
2018-May-18 13:28N 53°34' E 008°33'0 0.0
2018-May-18 12:49N 53°34' E 008°33'0 0.0
2018-May-18 12:28N 53°34' E 008°33'0 0.0
2018-May-18 11:58N 53°34' E 008°33'0 0.0
2018-May-18 11:28N 53°34' E 008°33'0 0.0
2018-May-18 10:58N 53°34' E 008°33'0 0.0
2018-May-18 10:28N 53°34' E 008°33'0 0.0
2018-May-18 09:58N 53°34' E 008°33'0 0.0
2018-May-18 09:28N 53°34' E 008°33'0 0.0
2018-May-18 08:58N 53°34' E 008°33'0 0.0
2018-May-18 08:28N 53°34' E 008°33'0 0.0
2018-May-18 07:58N 53°34' E 008°33'0 0.0
2018-May-18 07:28N 53°34' E 008°33'0 0.0
2018-May-18 06:58N 53°34' E 008°33'0 0.0
2018-May-18 06:28N 53°34' E 008°33'0 0.0
2018-May-18 06:01N 53°34' E 008°33'0 0.2
2018-May-18 05:31N 53°34' E 008°33'3 5.7
2018-May-18 05:00N 53°36' E 008°30'612.7
2018-May-18 04:30N 53°40' E 008°22'714.1
2018-May-18 04:00N 53°45' E 008°13'5511.0
2018-May-17 22:58N 54°09' E 006°48'611.9
2018-May-17 22:27N 54°09' E 006°37'1411.9
2018-May-17 21:17N 54°08' E 006°14'3213.4
2018-May-17 18:54N 54°04' E 005°19'17112.3
2018-May-17 04:56N 54°24' E 000°28'614.8
2018-May-17 04:31N 54°25' E 000°18'714.6
2018-May-17 04:01N 54°31' E 000°10'815.3
2018-May-17 03:30N 54°38' E 000°03'815.0
2018-May-17 03:00N 54°44' W 000°03'714.8
2018-May-17 02:30N 54°51' W 000°09'5014.3
2018-May-16 23:01N 55°35' W 000°51'014.2
2018-May-16 23:00N 55°35' W 000°51'714.3
2018-May-16 22:30N 55°41' W 000°57'713.7
2018-May-16 22:00N 55°47' W 001°03'713.8
2018-May-16 21:30N 55°52' W 001°12'713.7
2018-May-16 21:01N 55°57' W 001°20'714.0
2018-May-16 20:31N 56°02' W 001°29'714.0
2018-May-16 20:00N 56°07' W 001°38'713.9
2018-May-16 19:30N 56°12' W 001°46'1914.1
2018-May-16 18:11N 56°23' W 002°13'214.2
2018-May-16 18:00N 56°24' W 002°18'713.2
2018-May-16 17:31N 56°26' W 002°29'6 9.9
2018-May-16 16:52N 56°27' W 002°40'514.0
2018-May-16 16:30N 56°27' W 002°49'4 0.4
2018-May-16 04:30N 56°28' W 002°57'1 1.9
2018-May-16 03:59N 56°28' W 002°55'510.6
2018-May-16 03:30N 56°27' W 002°46'510.6
2018-May-16 03:00N 56°28' W 002°37'510.0
2018-May-16 02:30N 56°31' W 002°29'611.1
2018-May-16 02:00N 56°33' W 002°20'2111.9
2018-May-16 00:13N 56°51' W 001°58'312.5
2018-May-15 23:59N 56°53' W 001°55'612.2
2018-May-15 23:30N 56°58' W 001°50'611.9
2018-May-15 23:00N 57°04' W 001°45'612.7
2018-May-15 22:30N 57°10' W 001°42'713.3
2018-May-15 21:59N 57°17' W 001°39'712.5
2018-May-15 21:25N 57°23' W 001°36'512.0
2018-May-15 21:00N 57°28' W 001°33'611.8
2018-May-15 20:30N 57°34' W 001°36'7913.2
2018-May-15 14:31N 58°48' W 002°29'514.8
2018-May-15 14:09N 58°53' W 002°33'418.5
2018-May-15 13:57N 58°57' W 002°35'817.7
2018-May-15 13:31N 59°00' W 002°49'5 9.5
2018-May-15 13:01N 59°00' W 002°58'0 0.6
2018-May-15 12:30N 58°60' W 002°58'0 0.0
2018-May-15 12:00N 58°60' W 002°58'0 0.0
2018-May-15 11:30N 58°60' W 002°58'0 0.0
2018-May-15 11:00N 58°60' W 002°58'0 0.0
2018-May-15 10:30N 58°60' W 002°58'0 0.0
2018-May-15 10:00N 58°60' W 002°58'0 0.0
2018-May-15 09:30N 58°60' W 002°58'0 0.0
2018-May-15 09:00N 58°60' W 002°58'0 0.0
2018-May-15 08:30N 58°60' W 002°58'0 0.0
2018-May-15 08:00N 58°60' W 002°58'0 0.0
2018-May-15 07:30N 58°60' W 002°58'0 0.0
2018-May-15 07:00N 58°60' W 002°58'0 0.0
2018-May-15 06:30N 58°60' W 002°58'0 0.0
2018-May-15 06:00N 58°60' W 002°58'1 1.2
2018-May-15 05:30N 59°01' W 002°58'4 8.5
2018-May-15 05:00N 59°01' W 002°50'5 9.6
2018-May-15 04:30N 58°60' W 002°41'4 8.5
2018-May-15 04:00N 58°57' W 002°34'1610.4
2018-May-15 02:28N 58°42' W 002°44'714.2
2018-May-15 02:00N 58°36' W 002°51'714.1
2018-May-15 01:30N 58°41' W 003°01'611.5
2018-May-15 01:00N 58°44' W 003°11'815.2
2018-May-15 00:29N 58°44' W 003°26'207 7.3
2018-May-13 20:04N 55°50' W 006°53'117.1
2018-May-13 20:00N 55°49' W 006°52'714.4
2018-May-13 19:30N 55°43' W 006°46'713.6
2018-May-13 19:00N 55°37' W 006°38'713.7
2018-May-13 18:30N 55°32' W 006°31'713.8
2018-May-13 18:00N 55°27' W 006°21'714.7
2018-May-13 17:31N 55°25' W 006°09'714.2
2018-May-13 17:00N 55°21' W 005°59'815.9
2018-May-13 16:30N 55°14' W 005°52'816.7
2018-May-13 16:00N 55°07' W 005°45'918.0
2018-May-13 15:30N 54°59' W 005°38'918.6
2018-May-13 15:00N 54°50' W 005°33'815.3
2018-May-13 14:30N 54°43' W 005°39'613.0
2018-May-13 14:00N 54°41' W 005°49'4 7.8
2018-May-13 13:31N 54°38' W 005°54'1 1.3
2018-May-13 13:00N 54°37' W 005°54'0 0.0
2018-May-13 12:30N 54°37' W 005°54'0 0.0
2018-May-13 12:00N 54°37' W 005°54'0 0.0
2018-May-13 11:30N 54°37' W 005°54'0 0.0
2018-May-13 11:00N 54°37' W 005°54'0 0.0
2018-May-13 10:27N 54°37' W 005°54'0 0.0
2018-May-13 09:57N 54°37' W 005°54'0 0.0
2018-May-13 09:30N 54°37' W 005°54'0 0.0
2018-May-13 09:00N 54°37' W 005°54'0 0.0
2018-May-13 08:30N 54°37' W 005°54'0 0.0
2018-May-13 08:00N 54°37' W 005°54'0 0.0
2018-May-13 07:30N 54°37' W 005°54'0 0.0
2018-May-13 07:00N 54°37' W 005°54'0 0.4
2018-May-13 06:26N 54°37' W 005°54'3 6.1
2018-May-13 06:00N 54°39' W 005°51'510.1
2018-May-13 05:30N 54°42' W 005°44'5 9.8
2018-May-13 05:00N 54°43' W 005°36'5 9.9
2018-May-13 04:30N 54°42' W 005°27'5 9.9
2018-May-13 04:00N 54°38' W 005°23'510.7
2018-May-13 03:30N 54°33' W 005°19'510.6
2018-May-13 03:00N 54°28' W 005°15'5 9.7
2018-May-13 02:30N 54°24' W 005°11'5 9.5
2018-May-13 02:00N 54°19' W 005°10'  

Dump ship's entire track history